sensor_id;sensor_type;location;lat;lon;timestamp;P1;durP1;ratioP1;P2;durP2;ratioP2
62543;SDS011;48597;49.030;1.822;2023-07-20T00:02:09;1.50;;;0.90;;
62543;SDS011;48597;49.030;1.822;2023-07-20T00:04:34;0.90;;;0.90;;
62543;SDS011;48597;49.030;1.822;2023-07-20T00:07:00;0.88;;;0.80;;
62543;SDS011;48597;49.030;1.822;2023-07-20T00:09:28;0.80;;;0.80;;
62543;SDS011;48597;49.030;1.822;2023-07-20T00:11:54;0.95;;;0.90;;
62543;SDS011;48597;49.030;1.822;2023-07-20T00:14:19;1.20;;;0.90;;
62543;SDS011;48597;49.030;1.822;2023-07-20T00:16:45;0.70;;;0.70;;
62543;SDS011;48597;49.030;1.822;2023-07-20T00:19:12;0.77;;;0.75;;
62543;SDS011;48597;49.030;1.822;2023-07-20T00:21:37;0.70;;;0.70;;
62543;SDS011;48597;49.030;1.822;2023-07-20T00:24:05;0.90;;;0.80;;
62543;SDS011;48597;49.030;1.822;2023-07-20T00:26:31;1.10;;;1.00;;
62543;SDS011;48597;49.030;1.822;2023-07-20T00:28:57;1.20;;;0.80;;
62543;SDS011;48597;49.030;1.822;2023-07-20T00:31:22;0.82;;;0.70;;
62543;SDS011;48597;49.030;1.822;2023-07-20T00:33:47;0.80;;;0.80;;
62543;SDS011;48597;49.030;1.822;2023-07-20T00:36:13;1.00;;;0.90;;
62543;SDS011;48597;49.030;1.822;2023-07-20T00:38:39;0.77;;;0.77;;
62543;SDS011;48597;49.030;1.822;2023-07-20T00:41:04;0.90;;;0.85;;
62543;SDS011;48597;49.030;1.822;2023-07-20T00:43:29;0.90;;;0.90;;
62543;SDS011;48597;49.030;1.822;2023-07-20T00:45:55;0.82;;;0.82;;
62543;SDS011;48597;49.030;1.822;2023-07-20T00:48:21;1.10;;;1.00;;
62543;SDS011;48597;49.030;1.822;2023-07-20T00:50:46;0.70;;;0.70;;
62543;SDS011;48597;49.030;1.822;2023-07-20T00:53:13;0.98;;;0.90;;
62543;SDS011;48597;49.030;1.822;2023-07-20T00:55:39;0.98;;;0.90;;
62543;SDS011;48597;49.030;1.822;2023-07-20T00:58:04;0.80;;;0.80;;
62543;SDS011;48597;49.030;1.822;2023-07-20T01:00:30;0.80;;;0.80;;
62543;SDS011;48597;49.030;1.822;2023-07-20T01:02:56;1.00;;;0.90;;
62543;SDS011;48597;49.030;1.822;2023-07-20T01:05:21;1.27;;;1.02;;
62543;SDS011;48597;49.030;1.822;2023-07-20T01:08:17;0.95;;;0.73;;
62543;SDS011;48597;49.030;1.822;2023-07-20T01:10:54;1.27;;;0.90;;
62543;SDS011;48597;49.030;1.822;2023-07-20T01:13:24;1.05;;;0.80;;
62543;SDS011;48597;49.030;1.822;2023-07-20T01:15:57;0.80;;;0.80;;
62543;SDS011;48597;49.030;1.822;2023-07-20T01:18:26;0.80;;;0.80;;
62543;SDS011;48597;49.030;1.822;2023-07-20T01:20:52;0.80;;;0.80;;
62543;SDS011;48597;49.030;1.822;2023-07-20T01:31:41;1.05;;;0.80;;
62543;SDS011;48597;49.030;1.822;2023-07-20T01:34:09;0.85;;;0.85;;
62543;SDS011;48597;49.030;1.822;2023-07-20T01:36:37;1.73;;;0.98;;
62543;SDS011;48597;49.030;1.822;2023-07-20T01:39:03;1.15;;;1.00;;
62543;SDS011;48597;49.030;1.822;2023-07-20T01:41:30;0.80;;;0.80;;
62543;SDS011;48597;49.030;1.822;2023-07-20T01:43:59;0.85;;;0.85;;
62543;SDS011;48597;49.030;1.822;2023-07-20T01:46:24;0.70;;;0.60;;
62543;SDS011;48597;49.030;1.822;2023-07-20T01:48:50;0.88;;;0.88;;
62543;SDS011;48597;49.030;1.822;2023-07-20T01:51:15;0.80;;;0.70;;
62543;SDS011;48597;49.030;1.822;2023-07-20T01:53:42;1.55;;;0.90;;
62543;SDS011;48597;49.030;1.822;2023-07-20T01:56:08;0.88;;;0.88;;
62543;SDS011;48597;49.030;1.822;2023-07-20T01:58:33;1.00;;;0.90;;
62543;SDS011;48597;49.030;1.822;2023-07-20T02:00:59;0.98;;;0.88;;
62543;SDS011;48597;49.030;1.822;2023-07-20T02:03:24;1.42;;;0.88;;
62543;SDS011;48597;49.030;1.822;2023-07-20T02:05:51;0.80;;;0.80;;
62543;SDS011;48597;49.030;1.822;2023-07-20T02:08:17;0.90;;;0.90;;
62543;SDS011;48597;49.030;1.822;2023-07-20T02:10:45;0.80;;;0.70;;
62543;SDS011;48597;49.030;1.822;2023-07-20T02:13:12;0.85;;;0.85;;
62543;SDS011;48597;49.030;1.822;2023-07-20T02:15:37;1.10;;;0.70;;
62543;SDS011;48597;49.030;1.822;2023-07-20T02:18:02;0.80;;;0.80;;
62543;SDS011;48597;49.030;1.822;2023-07-20T02:20:28;0.90;;;0.90;;
62543;SDS011;48597;49.030;1.822;2023-07-20T02:22:53;0.80;;;0.77;;
62543;SDS011;48597;49.030;1.822;2023-07-20T02:25:19;0.77;;;0.77;;
62543;SDS011;48597;49.030;1.822;2023-07-20T02:27:45;0.80;;;0.80;;
62543;SDS011;48597;49.030;1.822;2023-07-20T02:30:10;0.80;;;0.80;;
62543;SDS011;48597;49.030;1.822;2023-07-20T02:32:36;0.70;;;0.70;;
62543;SDS011;48597;49.030;1.822;2023-07-20T02:35:01;0.80;;;0.80;;
62543;SDS011;48597;49.030;1.822;2023-07-20T02:37:28;1.25;;;0.98;;
62543;SDS011;48597;49.030;1.822;2023-07-20T02:39:54;0.73;;;0.73;;
62543;SDS011;48597;49.030;1.822;2023-07-20T02:42:19;1.27;;;1.00;;
62543;SDS011;48597;49.030;1.822;2023-07-20T02:44:47;0.70;;;0.70;;
62543;SDS011;48597;49.030;1.822;2023-07-20T02:47:13;1.35;;;0.80;;
62543;SDS011;48597;49.030;1.822;2023-07-20T02:49:38;1.70;;;0.77;;
62543;SDS011;48597;49.030;1.822;2023-07-20T02:52:04;0.80;;;0.80;;
62543;SDS011;48597;49.030;1.822;2023-07-20T02:54:30;0.95;;;0.90;;
62543;SDS011;48597;49.030;1.822;2023-07-20T02:56:55;0.80;;;0.80;;
62543;SDS011;48597;49.030;1.822;2023-07-20T02:59:21;0.82;;;0.80;;
62543;SDS011;48597;49.030;1.822;2023-07-20T03:01:47;0.90;;;0.80;;
62543;SDS011;48597;49.030;1.822;2023-07-20T03:04:12;1.30;;;0.80;;
62543;SDS011;48597;49.030;1.822;2023-07-20T03:06:37;1.20;;;0.63;;
62543;SDS011;48597;49.030;1.822;2023-07-20T03:09:03;0.93;;;0.77;;
62543;SDS011;48597;49.030;1.822;2023-07-20T03:11:29;1.00;;;0.90;;
62543;SDS011;48597;49.030;1.822;2023-07-20T03:13:54;0.82;;;0.82;;
62543;SDS011;48597;49.030;1.822;2023-07-20T03:16:21;0.77;;;0.70;;
62543;SDS011;48597;49.030;1.822;2023-07-20T03:18:47;1.25;;;0.90;;
62543;SDS011;48597;49.030;1.822;2023-07-20T03:21:12;1.33;;;0.90;;
62543;SDS011;48597;49.030;1.822;2023-07-20T03:23:38;0.95;;;0.77;;
62543;SDS011;48597;49.030;1.822;2023-07-20T03:26:04;0.88;;;0.80;;
62543;SDS011;48597;49.030;1.822;2023-07-20T03:28:29;0.80;;;0.80;;
62543;SDS011;48597;49.030;1.822;2023-07-20T03:30:58;0.70;;;0.70;;
62543;SDS011;48597;49.030;1.822;2023-07-20T03:33:25;0.95;;;0.80;;
62543;SDS011;48597;49.030;1.822;2023-07-20T03:35:51;0.70;;;0.70;;
62543;SDS011;48597;49.030;1.822;2023-07-20T03:38:17;0.70;;;0.70;;
62543;SDS011;48597;49.030;1.822;2023-07-20T03:40:50;0.82;;;0.82;;
62543;SDS011;48597;49.030;1.822;2023-07-20T03:43:15;1.55;;;1.00;;
62543;SDS011;48597;49.030;1.822;2023-07-20T03:45:41;1.23;;;0.80;;
62543;SDS011;48597;49.030;1.822;2023-07-20T03:48:06;0.93;;;0.80;;
62543;SDS011;48597;49.030;1.822;2023-07-20T03:50:31;1.08;;;0.98;;
62543;SDS011;48597;49.030;1.822;2023-07-20T03:52:58;0.70;;;0.70;;
62543;SDS011;48597;49.030;1.822;2023-07-20T03:55:23;0.70;;;0.70;;
62543;SDS011;48597;49.030;1.822;2023-07-20T03:57:48;0.82;;;0.70;;
62543;SDS011;48597;49.030;1.822;2023-07-20T04:00:15;0.93;;;0.82;;
62543;SDS011;48597;49.030;1.822;2023-07-20T04:02:41;0.82;;;0.82;;
62543;SDS011;48597;49.030;1.822;2023-07-20T04:05:07;0.82;;;0.82;;
62543;SDS011;48597;49.030;1.822;2023-07-20T04:07:33;0.80;;;0.80;;
62543;SDS011;48597;49.030;1.822;2023-07-20T04:09:58;0.80;;;0.80;;
62543;SDS011;48597;49.030;1.822;2023-07-20T04:12:23;1.15;;;0.80;;
62543;SDS011;48597;49.030;1.822;2023-07-20T04:14:49;0.90;;;0.80;;
62543;SDS011;48597;49.030;1.822;2023-07-20T04:17:14;1.13;;;1.00;;
62543;SDS011;48597;49.030;1.822;2023-07-20T04:19:39;1.00;;;0.90;;
62543;SDS011;48597;49.030;1.822;2023-07-20T04:22:05;0.70;;;0.70;;
62543;SDS011;48597;49.030;1.822;2023-07-20T04:24:30;0.98;;;0.90;;
62543;SDS011;48597;49.030;1.822;2023-07-20T04:26:55;0.68;;;0.68;;
62543;SDS011;48597;49.030;1.822;2023-07-20T04:29:21;0.93;;;0.90;;
62543;SDS011;48597;49.030;1.822;2023-07-20T04:31:46;1.00;;;0.90;;
62543;SDS011;48597;49.030;1.822;2023-07-20T04:34:12;0.80;;;0.80;;
62543;SDS011;48597;49.030;1.822;2023-07-20T04:36:37;1.00;;;0.85;;
62543;SDS011;48597;49.030;1.822;2023-07-20T04:39:03;0.80;;;0.80;;
62543;SDS011;48597;49.030;1.822;2023-07-20T04:41:29;0.80;;;0.80;;
62543;SDS011;48597;49.030;1.822;2023-07-20T04:43:55;0.70;;;0.70;;
62543;SDS011;48597;49.030;1.822;2023-07-20T04:46:20;1.23;;;0.90;;
62543;SDS011;48597;49.030;1.822;2023-07-20T04:48:46;0.70;;;0.70;;
62543;SDS011;48597;49.030;1.822;2023-07-20T04:51:12;0.70;;;0.70;;
62543;SDS011;48597;49.030;1.822;2023-07-20T04:53:38;0.80;;;0.80;;
62543;SDS011;48597;49.030;1.822;2023-07-20T04:56:03;0.70;;;0.70;;
62543;SDS011;48597;49.030;1.822;2023-07-20T04:58:29;0.82;;;0.82;;
62543;SDS011;48597;49.030;1.822;2023-07-20T05:00:54;0.98;;;0.90;;
62543;SDS011;48597;49.030;1.822;2023-07-20T05:03:20;1.00;;;0.90;;
62543;SDS011;48597;49.030;1.822;2023-07-20T05:05:46;0.95;;;0.80;;
62543;SDS011;48597;49.030;1.822;2023-07-20T05:08:13;0.80;;;0.80;;
62543;SDS011;48597;49.030;1.822;2023-07-20T05:10:38;0.85;;;0.80;;
62543;SDS011;48597;49.030;1.822;2023-07-20T05:13:04;1.00;;;0.90;;
62543;SDS011;48597;49.030;1.822;2023-07-20T05:15:29;1.00;;;0.80;;
62543;SDS011;48597;49.030;1.822;2023-07-20T05:17:55;0.93;;;0.70;;
62543;SDS011;48597;49.030;1.822;2023-07-20T05:20:20;0.90;;;0.90;;
62543;SDS011;48597;49.030;1.822;2023-07-20T05:22:46;1.55;;;1.00;;
62543;SDS011;48597;49.030;1.822;2023-07-20T05:25:11;0.77;;;0.77;;
62543;SDS011;48597;49.030;1.822;2023-07-20T05:27:36;0.90;;;0.90;;
62543;SDS011;48597;49.030;1.822;2023-07-20T05:30:03;1.42;;;0.90;;
62543;SDS011;48597;49.030;1.822;2023-07-20T05:32:29;0.80;;;0.80;;
62543;SDS011;48597;49.030;1.822;2023-07-20T05:34:55;1.05;;;0.82;;
62543;SDS011;48597;49.030;1.822;2023-07-20T05:37:20;1.10;;;0.90;;
62543;SDS011;48597;49.030;1.822;2023-07-20T05:39:46;1.42;;;0.90;;
62543;SDS011;48597;49.030;1.822;2023-07-20T05:42:11;1.17;;;1.08;;
62543;SDS011;48597;49.030;1.822;2023-07-20T05:44:37;0.90;;;0.90;;
62543;SDS011;48597;49.030;1.822;2023-07-20T05:47:03;1.17;;;0.85;;
62543;SDS011;48597;49.030;1.822;2023-07-20T05:49:29;0.85;;;0.85;;
62543;SDS011;48597;49.030;1.822;2023-07-20T05:51:56;0.90;;;0.80;;
62543;SDS011;48597;49.030;1.822;2023-07-20T05:54:21;1.35;;;0.98;;
62543;SDS011;48597;49.030;1.822;2023-07-20T05:56:48;0.90;;;0.80;;
62543;SDS011;48597;49.030;1.822;2023-07-20T05:59:14;1.05;;;0.95;;
62543;SDS011;48597;49.030;1.822;2023-07-20T06:01:40;0.80;;;0.80;;
62543;SDS011;48597;49.030;1.822;2023-07-20T06:04:05;0.80;;;0.80;;
62543;SDS011;48597;49.030;1.822;2023-07-20T06:06:30;1.13;;;0.90;;
62543;SDS011;48597;49.030;1.822;2023-07-20T06:08:56;1.45;;;0.90;;
62543;SDS011;48597;49.030;1.822;2023-07-20T06:11:21;1.00;;;0.80;;
62543;SDS011;48597;49.030;1.822;2023-07-20T06:13:47;1.23;;;1.00;;
62543;SDS011;48597;49.030;1.822;2023-07-20T06:16:12;1.10;;;1.00;;
62543;SDS011;48597;49.030;1.822;2023-07-20T06:18:38;1.23;;;0.90;;
62543;SDS011;48597;49.030;1.822;2023-07-20T06:21:03;1.10;;;1.00;;
62543;SDS011;48597;49.030;1.822;2023-07-20T06:23:29;1.13;;;1.00;;
62543;SDS011;48597;49.030;1.822;2023-07-20T06:25:54;0.88;;;0.80;;
62543;SDS011;48597;49.030;1.822;2023-07-20T06:28:19;1.00;;;0.90;;
62543;SDS011;48597;49.030;1.822;2023-07-20T06:30:45;1.13;;;1.02;;
62543;SDS011;48597;49.030;1.822;2023-07-20T06:33:10;0.90;;;0.90;;
62543;SDS011;48597;49.030;1.822;2023-07-20T06:35:36;1.30;;;1.10;;
62543;SDS011;48597;49.030;1.822;2023-07-20T06:38:06;0.80;;;0.80;;
62543;SDS011;48597;49.030;1.822;2023-07-20T06:40:33;1.40;;;0.80;;
62543;SDS011;48597;49.030;1.822;2023-07-20T06:42:58;0.90;;;0.90;;
62543;SDS011;48597;49.030;1.822;2023-07-20T06:45:24;1.20;;;1.10;;
62543;SDS011;48597;49.030;1.822;2023-07-20T06:47:49;1.02;;;0.93;;
62543;SDS011;48597;49.030;1.822;2023-07-20T06:50:14;1.55;;;0.90;;
62543;SDS011;48597;49.030;1.822;2023-07-20T06:52:40;1.10;;;1.00;;
62543;SDS011;48597;49.030;1.822;2023-07-20T06:55:06;1.45;;;1.15;;
62543;SDS011;48597;49.030;1.822;2023-07-20T06:57:32;1.00;;;0.90;;
62543;SDS011;48597;49.030;1.822;2023-07-20T06:59:57;1.10;;;1.00;;
62543;SDS011;48597;49.030;1.822;2023-07-20T07:02:23;1.27;;;1.10;;
62543;SDS011;48597;49.030;1.822;2023-07-20T07:04:48;1.00;;;0.85;;
62543;SDS011;48597;49.030;1.822;2023-07-20T07:07:14;1.00;;;0.98;;
62543;SDS011;48597;49.030;1.822;2023-07-20T07:09:40;1.10;;;1.00;;
62543;SDS011;48597;49.030;1.822;2023-07-20T07:12:05;1.35;;;1.10;;
62543;SDS011;48597;49.030;1.822;2023-07-20T07:14:31;1.20;;;1.10;;
62543;SDS011;48597;49.030;1.822;2023-07-20T07:16:56;1.30;;;1.10;;
62543;SDS011;48597;49.030;1.822;2023-07-20T07:19:22;1.25;;;0.90;;
62543;SDS011;48597;49.030;1.822;2023-07-20T07:21:47;1.25;;;1.15;;
62543;SDS011;48597;49.030;1.822;2023-07-20T07:24:13;1.40;;;1.20;;
62543;SDS011;48597;49.030;1.822;2023-07-20T07:26:38;1.30;;;1.00;;
62543;SDS011;48597;49.030;1.822;2023-07-20T07:29:06;0.95;;;0.90;;
62543;SDS011;48597;49.030;1.822;2023-07-20T07:31:33;1.10;;;1.00;;
62543;SDS011;48597;49.030;1.822;2023-07-20T07:34:00;0.90;;;0.90;;
62543;SDS011;48597;49.030;1.822;2023-07-20T07:36:25;1.25;;;1.10;;
62543;SDS011;48597;49.030;1.822;2023-07-20T07:38:51;1.13;;;0.80;;
62543;SDS011;48597;49.030;1.822;2023-07-20T07:41:16;1.38;;;0.80;;
62543;SDS011;48597;49.030;1.822;2023-07-20T07:43:41;1.10;;;1.00;;
62543;SDS011;48597;49.030;1.822;2023-07-20T07:46:07;1.55;;;1.10;;
62543;SDS011;48597;49.030;1.822;2023-07-20T07:48:32;1.10;;;1.00;;
62543;SDS011;48597;49.030;1.822;2023-07-20T07:50:57;1.00;;;0.90;;
62543;SDS011;48597;49.030;1.822;2023-07-20T07:53:23;1.20;;;1.10;;
62543;SDS011;48597;49.030;1.822;2023-07-20T07:55:51;1.20;;;1.10;;
62543;SDS011;48597;49.030;1.822;2023-07-20T07:58:17;1.60;;;1.25;;
62543;SDS011;48597;49.030;1.822;2023-07-20T08:00:42;1.40;;;1.17;;
62543;SDS011;48597;49.030;1.822;2023-07-20T08:03:09;1.17;;;1.08;;
62543;SDS011;48597;49.030;1.822;2023-07-20T08:05:35;1.20;;;1.10;;
62543;SDS011;48597;49.030;1.822;2023-07-20T08:08:01;1.33;;;1.08;;
62543;SDS011;48597;49.030;1.822;2023-07-20T08:10:30;1.27;;;1.13;;
62543;SDS011;48597;49.030;1.822;2023-07-20T08:12:55;1.15;;;1.00;;
62543;SDS011;48597;49.030;1.822;2023-07-20T08:15:21;1.33;;;1.20;;
62543;SDS011;48597;49.030;1.822;2023-07-20T08:17:47;1.50;;;1.40;;
62543;SDS011;48597;49.030;1.822;2023-07-20T08:20:13;1.20;;;1.10;;
62543;SDS011;48597;49.030;1.822;2023-07-20T08:22:39;1.90;;;1.20;;
62543;SDS011;48597;49.030;1.822;2023-07-20T08:25:07;1.52;;;1.17;;
62543;SDS011;48597;49.030;1.822;2023-07-20T08:27:34;1.40;;;1.27;;
62543;SDS011;48597;49.030;1.822;2023-07-20T08:29:59;1.65;;;1.13;;
62543;SDS011;48597;49.030;1.822;2023-07-20T08:32:25;1.30;;;1.20;;
62543;SDS011;48597;49.030;1.822;2023-07-20T08:34:51;0.93;;;0.93;;
62543;SDS011;48597;49.030;1.822;2023-07-20T08:37:17;1.50;;;1.25;;
62543;SDS011;48597;49.030;1.822;2023-07-20T08:39:42;1.50;;;1.38;;
62543;SDS011;48597;49.030;1.822;2023-07-20T08:42:07;1.58;;;1.35;;
62543;SDS011;48597;49.030;1.822;2023-07-20T08:44:36;1.40;;;1.20;;
62543;SDS011;48597;49.030;1.822;2023-07-20T08:47:03;1.13;;;0.90;;
62543;SDS011;48597;49.030;1.822;2023-07-20T08:49:33;0.90;;;0.88;;
62543;SDS011;48597;49.030;1.822;2023-07-20T08:51:59;1.17;;;1.08;;
62543;SDS011;48597;49.030;1.822;2023-07-20T08:54:27;1.13;;;1.00;;
62543;SDS011;48597;49.030;1.822;2023-07-20T08:56:57;1.33;;;1.08;;
62543;SDS011;48597;49.030;1.822;2023-07-20T08:59:26;1.30;;;1.20;;
62543;SDS011;48597;49.030;1.822;2023-07-20T09:01:55;1.55;;;1.45;;
62543;SDS011;48597;49.030;1.822;2023-07-20T09:04:23;1.38;;;1.25;;
62543;SDS011;48597;49.030;1.822;2023-07-20T09:06:49;1.20;;;1.08;;
62543;SDS011;48597;49.030;1.822;2023-07-20T09:09:15;1.23;;;1.05;;
62543;SDS011;48597;49.030;1.822;2023-07-20T09:11:40;1.38;;;1.27;;
62543;SDS011;48597;49.030;1.822;2023-07-20T09:14:06;1.40;;;1.23;;
62543;SDS011;48597;49.030;1.822;2023-07-20T09:16:46;1.33;;;1.20;;
62543;SDS011;48597;49.030;1.822;2023-07-20T09:19:16;1.40;;;1.30;;
62543;SDS011;48597;49.030;1.822;2023-07-20T09:21:51;1.23;;;1.13;;
62543;SDS011;48597;49.030;1.822;2023-07-20T09:24:17;1.85;;;1.38;;
62543;SDS011;48597;49.030;1.822;2023-07-20T09:26:44;1.33;;;1.13;;
62543;SDS011;48597;49.030;1.822;2023-07-20T09:29:10;1.05;;;1.00;;
62543;SDS011;48597;49.030;1.822;2023-07-20T09:31:36;1.42;;;1.10;;
62543;SDS011;48597;49.030;1.822;2023-07-20T09:34:02;1.35;;;1.13;;
62543;SDS011;48597;49.030;1.822;2023-07-20T09:36:34;1.63;;;1.42;;
62543;SDS011;48597;49.030;1.822;2023-07-20T09:39:01;1.42;;;1.20;;
62543;SDS011;48597;49.030;1.822;2023-07-20T09:41:27;1.42;;;1.33;;
62543;SDS011;48597;49.030;1.822;2023-07-20T09:43:52;1.73;;;1.17;;
62543;SDS011;48597;49.030;1.822;2023-07-20T09:46:19;1.38;;;1.27;;
62543;SDS011;48597;49.030;1.822;2023-07-20T09:48:51;1.02;;;0.95;;
62543;SDS011;48597;49.030;1.822;2023-07-20T09:51:19;1.20;;;1.10;;
62543;SDS011;48597;49.030;1.822;2023-07-20T09:53:48;1.20;;;1.10;;
62543;SDS011;48597;49.030;1.822;2023-07-20T09:56:16;1.30;;;1.20;;
62543;SDS011;48597;49.030;1.822;2023-07-20T09:58:43;2.33;;;1.40;;
62543;SDS011;48597;49.030;1.822;2023-07-20T10:01:10;1.20;;;1.08;;
62543;SDS011;48597;49.030;1.822;2023-07-20T10:03:39;1.13;;;1.02;;
62543;SDS011;48597;49.030;1.822;2023-07-20T10:06:08;1.30;;;1.00;;
62543;SDS011;48597;49.030;1.822;2023-07-20T10:08:41;1.20;;;1.10;;
62543;SDS011;48597;49.030;1.822;2023-07-20T10:11:07;1.20;;;1.10;;
62543;SDS011;48597;49.030;1.822;2023-07-20T10:13:34;1.25;;;1.15;;
62543;SDS011;48597;49.030;1.822;2023-07-20T10:16:03;1.30;;;1.20;;
62543;SDS011;48597;49.030;1.822;2023-07-20T10:18:55;1.13;;;1.05;;
62543;SDS011;48597;49.030;1.822;2023-07-20T10:21:24;1.13;;;1.02;;
62543;SDS011;48597;49.030;1.822;2023-07-20T10:23:50;1.20;;;1.10;;
62543;SDS011;48597;49.030;1.822;2023-07-20T10:26:16;1.05;;;1.00;;
62543;SDS011;48597;49.030;1.822;2023-07-20T10:28:41;1.27;;;1.17;;
62543;SDS011;48597;49.030;1.822;2023-07-20T10:31:10;1.23;;;1.13;;
62543;SDS011;48597;49.030;1.822;2023-07-20T10:33:37;1.20;;;1.00;;
62543;SDS011;48597;49.030;1.822;2023-07-20T10:36:04;1.33;;;1.23;;
62543;SDS011;48597;49.030;1.822;2023-07-20T10:38:52;1.20;;;1.10;;
62543;SDS011;48597;49.030;1.822;2023-07-20T10:41:20;1.20;;;1.10;;
62543;SDS011;48597;49.030;1.822;2023-07-20T10:44:06;1.45;;;1.23;;
62543;SDS011;48597;49.030;1.822;2023-07-20T10:46:33;1.00;;;1.00;;
62543;SDS011;48597;49.030;1.822;2023-07-20T10:49:00;1.25;;;1.15;;
62543;SDS011;48597;49.030;1.822;2023-07-20T10:51:28;1.05;;;0.98;;
62543;SDS011;48597;49.030;1.822;2023-07-20T10:53:55;1.20;;;1.10;;
62543;SDS011;48597;49.030;1.822;2023-07-20T10:56:27;1.40;;;1.30;;
62543;SDS011;48597;49.030;1.822;2023-07-20T10:59:00;1.30;;;1.20;;
62543;SDS011;48597;49.030;1.822;2023-07-20T11:01:29;1.10;;;1.02;;
62543;SDS011;48597;49.030;1.822;2023-07-20T11:03:59;1.10;;;1.00;;
62543;SDS011;48597;49.030;1.822;2023-07-20T11:09:03;1.30;;;0.80;;
62543;SDS011;48597;49.030;1.822;2023-07-20T11:11:37;1.15;;;1.05;;
62543;SDS011;48597;49.030;1.822;2023-07-20T11:14:07;1.25;;;1.15;;
62543;SDS011;48597;49.030;1.822;2023-07-20T11:16:34;1.10;;;1.00;;
62543;SDS011;48597;49.030;1.822;2023-07-20T11:19:00;0.88;;;0.85;;
62543;SDS011;48597;49.030;1.822;2023-07-20T11:21:25;1.40;;;1.30;;
62543;SDS011;48597;49.030;1.822;2023-07-20T11:23:54;1.00;;;1.00;;
62543;SDS011;48597;49.030;1.822;2023-07-20T11:26:20;1.50;;;1.20;;
62543;SDS011;48597;49.030;1.822;2023-07-20T11:28:51;1.20;;;1.10;;
62543;SDS011;48597;49.030;1.822;2023-07-20T11:31:17;0.85;;;0.85;;
62543;SDS011;48597;49.030;1.822;2023-07-20T11:33:43;1.20;;;1.10;;
62543;SDS011;48597;49.030;1.822;2023-07-20T11:36:09;1.27;;;1.17;;
62543;SDS011;48597;49.030;1.822;2023-07-20T11:38:35;1.23;;;1.13;;
62543;SDS011;48597;49.030;1.822;2023-07-20T11:41:02;1.00;;;0.95;;
62543;SDS011;48597;49.030;1.822;2023-07-20T11:43:28;1.10;;;1.00;;
62543;SDS011;48597;49.030;1.822;2023-07-20T11:45:54;0.95;;;0.93;;
62543;SDS011;48597;49.030;1.822;2023-07-20T11:48:20;1.20;;;1.10;;
62543;SDS011;48597;49.030;1.822;2023-07-20T11:50:45;1.38;;;1.00;;
62543;SDS011;48597;49.030;1.822;2023-07-20T11:53:11;1.30;;;1.20;;
62543;SDS011;48597;49.030;1.822;2023-07-20T11:55:38;1.10;;;1.00;;
62543;SDS011;48597;49.030;1.822;2023-07-20T11:58:05;1.10;;;1.00;;
62543;SDS011;48597;49.030;1.822;2023-07-20T12:00:32;0.98;;;0.98;;
62543;SDS011;48597;49.030;1.822;2023-07-20T12:02:59;1.00;;;1.00;;
62543;SDS011;48597;49.030;1.822;2023-07-20T12:05:24;1.10;;;1.00;;
62543;SDS011;48597;49.030;1.822;2023-07-20T12:07:51;1.20;;;1.10;;
62543;SDS011;48597;49.030;1.822;2023-07-20T12:10:23;0.95;;;0.95;;
62543;SDS011;48597;49.030;1.822;2023-07-20T12:12:53;1.05;;;0.95;;
62543;SDS011;48597;49.030;1.822;2023-07-20T12:15:25;1.30;;;1.20;;
62543;SDS011;48597;49.030;1.822;2023-07-20T12:17:55;0.90;;;0.90;;
62543;SDS011;48597;49.030;1.822;2023-07-20T12:22:59;1.15;;;1.05;;
62543;SDS011;48597;49.030;1.822;2023-07-20T12:25:34;0.95;;;0.90;;
62543;SDS011;48597;49.030;1.822;2023-07-20T12:28:10;1.10;;;1.00;;
62543;SDS011;48597;49.030;1.822;2023-07-20T12:30:37;0.90;;;0.90;;
62543;SDS011;48597;49.030;1.822;2023-07-20T12:33:03;1.20;;;1.10;;
62543;SDS011;48597;49.030;1.822;2023-07-20T12:35:30;1.25;;;1.10;;
62543;SDS011;48597;49.030;1.822;2023-07-20T12:37:55;0.88;;;0.88;;
62543;SDS011;48597;49.030;1.822;2023-07-20T12:40:21;0.90;;;0.90;;
62543;SDS011;48597;49.030;1.822;2023-07-20T12:42:46;1.10;;;1.05;;
62543;SDS011;48597;49.030;1.822;2023-07-20T12:45:12;0.90;;;0.80;;
62543;SDS011;48597;49.030;1.822;2023-07-20T12:47:39;1.30;;;1.20;;
62543;SDS011;48597;49.030;1.822;2023-07-20T12:50:04;0.90;;;0.90;;
62543;SDS011;48597;49.030;1.822;2023-07-20T12:52:31;0.90;;;0.90;;
62543;SDS011;48597;49.030;1.822;2023-07-20T12:54:56;1.13;;;1.02;;
62543;SDS011;48597;49.030;1.822;2023-07-20T12:57:22;0.90;;;0.90;;
62543;SDS011;48597;49.030;1.822;2023-07-20T12:59:54;0.80;;;0.80;;
62543;SDS011;48597;49.030;1.822;2023-07-20T13:02:19;0.93;;;0.90;;
62543;SDS011;48597;49.030;1.822;2023-07-20T13:04:45;0.80;;;0.80;;
62543;SDS011;48597;49.030;1.822;2023-07-20T13:07:10;1.10;;;1.00;;
62543;SDS011;48597;49.030;1.822;2023-07-20T13:09:37;1.00;;;0.90;;
62543;SDS011;48597;49.030;1.822;2023-07-20T13:12:02;0.90;;;0.90;;
62543;SDS011;48597;49.030;1.822;2023-07-20T13:14:28;1.10;;;1.00;;
62543;SDS011;48597;49.030;1.822;2023-07-20T13:16:55;0.98;;;0.90;;
62543;SDS011;48597;49.030;1.822;2023-07-20T13:19:20;1.10;;;1.00;;
62543;SDS011;48597;49.030;1.822;2023-07-20T13:21:46;0.85;;;0.85;;
62543;SDS011;48597;49.030;1.822;2023-07-20T13:24:11;0.80;;;0.80;;
62543;SDS011;48597;49.030;1.822;2023-07-20T13:26:37;0.80;;;0.80;;
62543;SDS011;48597;49.030;1.822;2023-07-20T13:29:02;0.90;;;0.90;;
62543;SDS011;48597;49.030;1.822;2023-07-20T13:31:28;0.80;;;0.80;;
62543;SDS011;48597;49.030;1.822;2023-07-20T13:33:53;1.10;;;1.00;;
62543;SDS011;48597;49.030;1.822;2023-07-20T13:36:19;1.00;;;0.90;;
62543;SDS011;48597;49.030;1.822;2023-07-20T13:38:46;0.85;;;0.85;;
62543;SDS011;48597;49.030;1.822;2023-07-20T13:41:11;1.10;;;1.00;;
62543;SDS011;48597;49.030;1.822;2023-07-20T13:43:36;0.90;;;0.90;;
62543;SDS011;48597;49.030;1.822;2023-07-20T13:46:02;1.00;;;0.90;;
62543;SDS011;48597;49.030;1.822;2023-07-20T13:48:27;1.10;;;1.00;;
62543;SDS011;48597;49.030;1.822;2023-07-20T13:50:53;1.13;;;1.02;;
62543;SDS011;48597;49.030;1.822;2023-07-20T13:53:19;1.17;;;0.95;;
62543;SDS011;48597;49.030;1.822;2023-07-20T13:55:44;0.85;;;0.85;;
62543;SDS011;48597;49.030;1.822;2023-07-20T13:58:09;1.08;;;1.00;;
62543;SDS011;48597;49.030;1.822;2023-07-20T14:00:35;1.10;;;1.00;;
62543;SDS011;48597;49.030;1.822;2023-07-20T14:03:01;0.80;;;0.80;;
62543;SDS011;48597;49.030;1.822;2023-07-20T14:05:26;0.70;;;0.70;;
62543;SDS011;48597;49.030;1.822;2023-07-20T14:07:53;0.80;;;0.80;;
62543;SDS011;48597;49.030;1.822;2023-07-20T14:10:18;1.00;;;1.00;;
62543;SDS011;48597;49.030;1.822;2023-07-20T14:12:44;0.90;;;0.90;;
62543;SDS011;48597;49.030;1.822;2023-07-20T14:15:10;0.98;;;0.95;;
62543;SDS011;48597;49.030;1.822;2023-07-20T14:17:35;0.82;;;0.82;;
62543;SDS011;48597;49.030;1.822;2023-07-20T14:20:00;0.80;;;0.80;;
62543;SDS011;48597;49.030;1.822;2023-07-20T14:22:28;0.90;;;0.90;;
62543;SDS011;48597;49.030;1.822;2023-07-20T14:24:53;0.95;;;0.80;;
62543;SDS011;48597;49.030;1.822;2023-07-20T14:27:18;1.10;;;1.00;;
62543;SDS011;48597;49.030;1.822;2023-07-20T14:29:44;0.95;;;0.95;;
62543;SDS011;48597;49.030;1.822;2023-07-20T14:32:09;0.80;;;0.80;;
62543;SDS011;48597;49.030;1.822;2023-07-20T14:34:35;1.00;;;1.00;;
62543;SDS011;48597;49.030;1.822;2023-07-20T14:37:01;0.90;;;0.90;;
62543;SDS011;48597;49.030;1.822;2023-07-20T14:39:30;1.02;;;0.88;;
62543;SDS011;48597;49.030;1.822;2023-07-20T14:41:55;1.00;;;0.90;;
62543;SDS011;48597;49.030;1.822;2023-07-20T14:44:21;0.95;;;0.90;;
62543;SDS011;48597;49.030;1.822;2023-07-20T14:46:46;1.00;;;0.90;;
62543;SDS011;48597;49.030;1.822;2023-07-20T14:49:12;0.90;;;0.90;;
62543;SDS011;48597;49.030;1.822;2023-07-20T14:51:37;0.90;;;0.90;;
62543;SDS011;48597;49.030;1.822;2023-07-20T14:54:08;0.82;;;0.82;;
62543;SDS011;48597;49.030;1.822;2023-07-20T14:56:34;0.77;;;0.77;;
62543;SDS011;48597;49.030;1.822;2023-07-20T14:59:00;0.75;;;0.75;;